sensor_id;sensor_type;location;lat;lon;timestamp;P1;durP1;ratioP1;P2;durP2;ratioP2
52838;SDS011;39219;53.678;9.856;2023-09-19T00:00:23;3.72;;;2.10;;
52838;SDS011;39219;53.678;9.856;2023-09-19T00:02:53;4.70;;;2.20;;
52838;SDS011;39219;53.678;9.856;2023-09-19T00:05:23;5.63;;;2.33;;
52838;SDS011;39219;53.678;9.856;2023-09-19T00:07:50;5.05;;;2.33;;
52838;SDS011;39219;53.678;9.856;2023-09-19T00:10:19;6.68;;;2.40;;
52838;SDS011;39219;53.678;9.856;2023-09-19T00:12:47;5.63;;;2.60;;
52838;SDS011;39219;53.678;9.856;2023-09-19T00:15:13;5.40;;;2.47;;
52838;SDS011;39219;53.678;9.856;2023-09-19T00:17:42;2.88;;;2.30;;
52838;SDS011;39219;53.678;9.856;2023-09-19T00:20:09;5.15;;;2.65;;
52838;SDS011;39219;53.678;9.856;2023-09-19T00:22:40;4.15;;;2.35;;
52838;SDS011;39219;53.678;9.856;2023-09-19T00:25:08;4.57;;;2.60;;
52838;SDS011;39219;53.678;9.856;2023-09-19T00:27:34;5.35;;;2.42;;
52838;SDS011;39219;53.678;9.856;2023-09-19T00:30:04;4.70;;;2.65;;
52838;SDS011;39219;53.678;9.856;2023-09-19T00:32:30;3.28;;;2.55;;
52838;SDS011;39219;53.678;9.856;2023-09-19T00:34:57;5.13;;;2.60;;
52838;SDS011;39219;53.678;9.856;2023-09-19T00:37:23;4.93;;;2.60;;
52838;SDS011;39219;53.678;9.856;2023-09-19T00:39:51;8.18;;;2.70;;
52838;SDS011;39219;53.678;9.856;2023-09-19T00:42:18;4.78;;;2.60;;
52838;SDS011;39219;53.678;9.856;2023-09-19T00:44:46;5.43;;;2.70;;
52838;SDS011;39219;53.678;9.856;2023-09-19T00:47:12;5.78;;;2.78;;
52838;SDS011;39219;53.678;9.856;2023-09-19T00:49:42;7.32;;;3.03;;
52838;SDS011;39219;53.678;9.856;2023-09-19T00:52:08;7.35;;;2.80;;
52838;SDS011;39219;53.678;9.856;2023-09-19T00:54:36;6.97;;;3.20;;
52838;SDS011;39219;53.678;9.856;2023-09-19T00:57:04;6.90;;;3.10;;
52838;SDS011;39219;53.678;9.856;2023-09-19T00:59:30;7.75;;;2.97;;
52838;SDS011;39219;53.678;9.856;2023-09-19T01:01:57;6.00;;;3.25;;
52838;SDS011;39219;53.678;9.856;2023-09-19T01:04:25;6.97;;;3.35;;
52838;SDS011;39219;53.678;9.856;2023-09-19T01:06:52;6.80;;;3.20;;
52838;SDS011;39219;53.678;9.856;2023-09-19T01:09:19;8.07;;;3.38;;
52838;SDS011;39219;53.678;9.856;2023-09-19T01:11:47;6.15;;;3.28;;
52838;SDS011;39219;53.678;9.856;2023-09-19T01:14:18;7.50;;;3.58;;
52838;SDS011;39219;53.678;9.856;2023-09-19T01:16:48;6.57;;;3.45;;
52838;SDS011;39219;53.678;9.856;2023-09-19T01:22:07;7.15;;;3.28;;
52838;SDS011;39219;53.678;9.856;2023-09-19T01:24:47;10.00;;;3.53;;
52838;SDS011;39219;53.678;9.856;2023-09-19T01:27:20;6.18;;;3.55;;
52838;SDS011;39219;53.678;9.856;2023-09-19T01:29:52;9.18;;;3.50;;
52838;SDS011;39219;53.678;9.856;2023-09-19T01:32:21;7.75;;;3.50;;
52838;SDS011;39219;53.678;9.856;2023-09-19T01:34:54;6.15;;;3.53;;
52838;SDS011;39219;53.678;9.856;2023-09-19T01:37:22;6.63;;;3.53;;
52838;SDS011;39219;53.678;9.856;2023-09-19T01:39:51;7.55;;;3.42;;
52838;SDS011;39219;53.678;9.856;2023-09-19T01:42:21;7.32;;;3.40;;
52838;SDS011;39219;53.678;9.856;2023-09-19T01:44:51;7.28;;;3.42;;
52838;SDS011;39219;53.678;9.856;2023-09-19T01:47:19;8.52;;;3.45;;
52838;SDS011;39219;53.678;9.856;2023-09-19T01:49:54;7.63;;;3.60;;
52838;SDS011;39219;53.678;9.856;2023-09-19T01:52:22;8.70;;;3.60;;
52838;SDS011;39219;53.678;9.856;2023-09-19T01:54:54;6.43;;;3.38;;
52838;SDS011;39219;53.678;9.856;2023-09-19T01:57:26;6.68;;;3.10;;
52838;SDS011;39219;53.678;9.856;2023-09-19T01:59:57;7.63;;;3.08;;
52838;SDS011;39219;53.678;9.856;2023-09-19T02:02:25;5.15;;;3.00;;
52838;SDS011;39219;53.678;9.856;2023-09-19T02:04:55;7.28;;;3.28;;
52838;SDS011;39219;53.678;9.856;2023-09-19T02:07:22;7.25;;;3.00;;
52838;SDS011;39219;53.678;9.856;2023-09-19T02:09:48;5.53;;;2.75;;
52838;SDS011;39219;53.678;9.856;2023-09-19T02:12:14;5.25;;;2.90;;
52838;SDS011;39219;53.678;9.856;2023-09-19T02:14:41;6.32;;;2.97;;
52838;SDS011;39219;53.678;9.856;2023-09-19T02:17:07;6.00;;;2.90;;
52838;SDS011;39219;53.678;9.856;2023-09-19T02:19:36;7.15;;;3.03;;
52838;SDS011;39219;53.678;9.856;2023-09-19T02:22:05;5.82;;;2.60;;
52838;SDS011;39219;53.678;9.856;2023-09-19T02:24:35;7.13;;;2.72;;
52838;SDS011;39219;53.678;9.856;2023-09-19T02:27:02;5.32;;;2.38;;
52838;SDS011;39219;53.678;9.856;2023-09-19T02:29:30;6.78;;;2.50;;
52838;SDS011;39219;53.678;9.856;2023-09-19T02:31:57;8.10;;;2.60;;
52838;SDS011;39219;53.678;9.856;2023-09-19T02:34:23;6.43;;;2.85;;
52838;SDS011;39219;53.678;9.856;2023-09-19T02:36:50;6.55;;;2.50;;
52838;SDS011;39219;53.678;9.856;2023-09-19T02:39:20;4.93;;;2.53;;
52838;SDS011;39219;53.678;9.856;2023-09-19T02:41:46;5.55;;;2.85;;
52838;SDS011;39219;53.678;9.856;2023-09-19T02:44:13;8.20;;;3.22;;
52838;SDS011;39219;53.678;9.856;2023-09-19T02:46:39;11.35;;;3.53;;
52838;SDS011;39219;53.678;9.856;2023-09-19T02:49:05;7.28;;;3.08;;
52838;SDS011;39219;53.678;9.856;2023-09-19T02:51:32;7.00;;;3.28;;
52838;SDS011;39219;53.678;9.856;2023-09-19T02:53:59;7.50;;;3.28;;
52838;SDS011;39219;53.678;9.856;2023-09-19T02:56:27;7.47;;;3.13;;
52838;SDS011;39219;53.678;9.856;2023-09-19T02:58:54;6.95;;;3.00;;
52838;SDS011;39219;53.678;9.856;2023-09-19T03:01:21;8.38;;;3.55;;
52838;SDS011;39219;53.678;9.856;2023-09-19T03:03:48;8.93;;;3.42;;
52838;SDS011;39219;53.678;9.856;2023-09-19T03:06:14;7.68;;;3.30;;
52838;SDS011;39219;53.678;9.856;2023-09-19T03:08:45;7.30;;;3.47;;
52838;SDS011;39219;53.678;9.856;2023-09-19T03:11:11;7.22;;;3.00;;
52838;SDS011;39219;53.678;9.856;2023-09-19T03:13:42;9.07;;;3.00;;
52838;SDS011;39219;53.678;9.856;2023-09-19T03:16:09;8.77;;;3.05;;
52838;SDS011;39219;53.678;9.856;2023-09-19T03:18:36;5.72;;;2.50;;
52838;SDS011;39219;53.678;9.856;2023-09-19T03:21:02;7.32;;;2.63;;
52838;SDS011;39219;53.678;9.856;2023-09-19T03:23:29;5.65;;;2.47;;
52838;SDS011;39219;53.678;9.856;2023-09-19T03:25:55;8.32;;;2.90;;
52838;SDS011;39219;53.678;9.856;2023-09-19T03:28:24;8.05;;;2.90;;
52838;SDS011;39219;53.678;9.856;2023-09-19T03:30:59;7.20;;;2.78;;
52838;SDS011;39219;53.678;9.856;2023-09-19T03:33:26;7.88;;;2.67;;
52838;SDS011;39219;53.678;9.856;2023-09-19T03:35:53;6.28;;;2.50;;
52838;SDS011;39219;53.678;9.856;2023-09-19T03:38:19;5.93;;;2.40;;
52838;SDS011;39219;53.678;9.856;2023-09-19T03:40:46;5.45;;;2.28;;
52838;SDS011;39219;53.678;9.856;2023-09-19T03:43:13;8.85;;;2.65;;
52838;SDS011;39219;53.678;9.856;2023-09-19T03:45:40;5.47;;;2.20;;
52838;SDS011;39219;53.678;9.856;2023-09-19T03:48:09;7.50;;;2.50;;
52838;SDS011;39219;53.678;9.856;2023-09-19T03:50:35;7.43;;;2.58;;
52838;SDS011;39219;53.678;9.856;2023-09-19T03:53:02;8.02;;;2.58;;
52838;SDS011;39219;53.678;9.856;2023-09-19T03:55:28;5.63;;;2.50;;
52838;SDS011;39219;53.678;9.856;2023-09-19T03:57:55;7.15;;;2.20;;
52838;SDS011;39219;53.678;9.856;2023-09-19T04:00:22;7.05;;;2.15;;
52838;SDS011;39219;53.678;9.856;2023-09-19T04:02:49;7.25;;;2.30;;
52838;SDS011;39219;53.678;9.856;2023-09-19T04:05:17;6.57;;;2.42;;
52838;SDS011;39219;53.678;9.856;2023-09-19T04:07:43;6.88;;;2.60;;
52838;SDS011;39219;53.678;9.856;2023-09-19T04:10:10;7.72;;;2.22;;
52838;SDS011;39219;53.678;9.856;2023-09-19T04:12:36;7.93;;;2.70;;
52838;SDS011;39219;53.678;9.856;2023-09-19T04:15:03;6.72;;;2.33;;
52838;SDS011;39219;53.678;9.856;2023-09-19T04:17:29;8.93;;;2.60;;
52838;SDS011;39219;53.678;9.856;2023-09-19T04:19:58;7.88;;;2.33;;
52838;SDS011;39219;53.678;9.856;2023-09-19T04:22:25;5.35;;;2.15;;
52838;SDS011;39219;53.678;9.856;2023-09-19T04:24:52;10.70;;;2.50;;
52838;SDS011;39219;53.678;9.856;2023-09-19T04:27:18;7.63;;;2.40;;
52838;SDS011;39219;53.678;9.856;2023-09-19T04:29:44;5.15;;;2.00;;
52838;SDS011;39219;53.678;9.856;2023-09-19T04:32:11;6.72;;;2.00;;
52838;SDS011;39219;53.678;9.856;2023-09-19T04:34:38;4.05;;;2.33;;
52838;SDS011;39219;53.678;9.856;2023-09-19T04:37:04;6.13;;;2.20;;
52838;SDS011;39219;53.678;9.856;2023-09-19T04:39:32;10.77;;;2.50;;
52838;SDS011;39219;53.678;9.856;2023-09-19T04:41:59;7.38;;;2.30;;
52838;SDS011;39219;53.678;9.856;2023-09-19T04:44:25;6.15;;;1.77;;
52838;SDS011;39219;53.678;9.856;2023-09-19T04:46:51;8.32;;;2.60;;
52838;SDS011;39219;53.678;9.856;2023-09-19T04:49:18;9.10;;;2.33;;
52838;SDS011;39219;53.678;9.856;2023-09-19T04:51:44;5.60;;;2.05;;
52838;SDS011;39219;53.678;9.856;2023-09-19T04:54:12;8.63;;;2.17;;
52838;SDS011;39219;53.678;9.856;2023-09-19T04:56:39;5.18;;;2.05;;
52838;SDS011;39219;53.678;9.856;2023-09-19T04:59:06;7.45;;;2.30;;
52838;SDS011;39219;53.678;9.856;2023-09-19T05:01:32;8.23;;;2.50;;
52838;SDS011;39219;53.678;9.856;2023-09-19T05:03:58;6.22;;;2.20;;
52838;SDS011;39219;53.678;9.856;2023-09-19T05:06:25;8.82;;;2.70;;
52838;SDS011;39219;53.678;9.856;2023-09-19T05:08:52;8.48;;;2.53;;
52838;SDS011;39219;53.678;9.856;2023-09-19T05:11:18;7.68;;;2.33;;
52838;SDS011;39219;53.678;9.856;2023-09-19T05:13:47;7.00;;;2.33;;
52838;SDS011;39219;53.678;9.856;2023-09-19T05:16:15;7.15;;;2.33;;
52838;SDS011;39219;53.678;9.856;2023-09-19T05:18:41;6.70;;;2.13;;
52838;SDS011;39219;53.678;9.856;2023-09-19T05:21:07;13.45;;;2.95;;
52838;SDS011;39219;53.678;9.856;2023-09-19T05:23:34;7.43;;;2.38;;
52838;SDS011;39219;53.678;9.856;2023-09-19T05:26:01;5.95;;;2.22;;
52838;SDS011;39219;53.678;9.856;2023-09-19T05:28:29;7.20;;;2.25;;
52838;SDS011;39219;53.678;9.856;2023-09-19T05:30:56;7.50;;;2.42;;
52838;SDS011;39219;53.678;9.856;2023-09-19T05:33:23;4.82;;;2.17;;
52838;SDS011;39219;53.678;9.856;2023-09-19T05:35:50;10.23;;;2.50;;
52838;SDS011;39219;53.678;9.856;2023-09-19T05:38:16;7.43;;;2.22;;
52838;SDS011;39219;53.678;9.856;2023-09-19T05:40:44;11.80;;;2.70;;
52838;SDS011;39219;53.678;9.856;2023-09-19T05:43:11;6.75;;;2.22;;
52838;SDS011;39219;53.678;9.856;2023-09-19T05:45:39;7.70;;;2.50;;
52838;SDS011;39219;53.678;9.856;2023-09-19T05:48:11;6.20;;;2.10;;
52838;SDS011;39219;53.678;9.856;2023-09-19T05:50:38;8.15;;;2.15;;
52838;SDS011;39219;53.678;9.856;2023-09-19T05:53:04;5.93;;;2.25;;
52838;SDS011;39219;53.678;9.856;2023-09-19T05:55:31;10.02;;;2.42;;
52838;SDS011;39219;53.678;9.856;2023-09-19T05:57:57;7.45;;;2.50;;
52838;SDS011;39219;53.678;9.856;2023-09-19T06:00:24;9.80;;;2.42;;
52838;SDS011;39219;53.678;9.856;2023-09-19T06:02:52;6.85;;;2.40;;
52838;SDS011;39219;53.678;9.856;2023-09-19T06:05:20;8.48;;;2.47;;
52838;SDS011;39219;53.678;9.856;2023-09-19T06:07:47;8.43;;;2.53;;
52838;SDS011;39219;53.678;9.856;2023-09-19T06:10:13;9.32;;;2.20;;
52838;SDS011;39219;53.678;9.856;2023-09-19T06:12:40;9.38;;;2.50;;
52838;SDS011;39219;53.678;9.856;2023-09-19T06:15:08;6.72;;;2.10;;
52838;SDS011;39219;53.678;9.856;2023-09-19T06:17:37;7.70;;;2.55;;
52838;SDS011;39219;53.678;9.856;2023-09-19T06:20:04;5.28;;;1.80;;
52838;SDS011;39219;53.678;9.856;2023-09-19T06:22:37;9.48;;;2.80;;
52838;SDS011;39219;53.678;9.856;2023-09-19T06:25:03;7.90;;;2.25;;
52838;SDS011;39219;53.678;9.856;2023-09-19T06:27:30;6.82;;;2.50;;
52838;SDS011;39219;53.678;9.856;2023-09-19T06:29:56;5.88;;;2.10;;
52838;SDS011;39219;53.678;9.856;2023-09-19T06:32:26;6.50;;;2.58;;
52838;SDS011;39219;53.678;9.856;2023-09-19T06:34:52;9.23;;;2.25;;
52838;SDS011;39219;53.678;9.856;2023-09-19T06:37:19;6.75;;;2.15;;
52838;SDS011;39219;53.678;9.856;2023-09-19T06:39:47;6.78;;;2.10;;
52838;SDS011;39219;53.678;9.856;2023-09-19T06:42:14;5.50;;;1.98;;
52838;SDS011;39219;53.678;9.856;2023-09-19T06:44:42;6.25;;;2.17;;
52838;SDS011;39219;53.678;9.856;2023-09-19T06:47:08;8.02;;;2.13;;
52838;SDS011;39219;53.678;9.856;2023-09-19T06:49:35;10.00;;;2.22;;
52838;SDS011;39219;53.678;9.856;2023-09-19T06:52:01;9.38;;;1.85;;
52838;SDS011;39219;53.678;9.856;2023-09-19T06:54:27;7.50;;;2.47;;
52838;SDS011;39219;53.678;9.856;2023-09-19T06:56:57;6.70;;;2.33;;
52838;SDS011;39219;53.678;9.856;2023-09-19T06:59:24;9.23;;;2.25;;
52838;SDS011;39219;53.678;9.856;2023-09-19T07:01:50;7.43;;;2.20;;
52838;SDS011;39219;53.678;9.856;2023-09-19T07:04:17;8.38;;;2.42;;
52838;SDS011;39219;53.678;9.856;2023-09-19T07:06:44;8.93;;;2.47;;
52838;SDS011;39219;53.678;9.856;2023-09-19T07:09:11;6.50;;;2.42;;
52838;SDS011;39219;53.678;9.856;2023-09-19T07:11:37;6.75;;;2.40;;
52838;SDS011;39219;53.678;9.856;2023-09-19T07:14:05;9.63;;;2.50;;
52838;SDS011;39219;53.678;9.856;2023-09-19T07:16:31;7.80;;;2.40;;
52838;SDS011;39219;53.678;9.856;2023-09-19T07:18:58;9.05;;;2.88;;
52838;SDS011;39219;53.678;9.856;2023-09-19T07:21:24;9.13;;;2.45;;
52838;SDS011;39219;53.678;9.856;2023-09-19T07:23:50;8.65;;;2.58;;
52838;SDS011;39219;53.678;9.856;2023-09-19T07:26:17;9.15;;;2.50;;
52838;SDS011;39219;53.678;9.856;2023-09-19T07:28:43;7.18;;;2.40;;
52838;SDS011;39219;53.678;9.856;2023-09-19T07:31:11;5.32;;;2.60;;
52838;SDS011;39219;53.678;9.856;2023-09-19T07:33:39;8.05;;;2.58;;
52838;SDS011;39219;53.678;9.856;2023-09-19T07:36:06;7.22;;;2.70;;
52838;SDS011;39219;53.678;9.856;2023-09-19T07:38:35;9.93;;;2.63;;
52838;SDS011;39219;53.678;9.856;2023-09-19T07:41:02;8.35;;;2.80;;
52838;SDS011;39219;53.678;9.856;2023-09-19T07:43:30;14.70;;;3.00;;
52838;SDS011;39219;53.678;9.856;2023-09-19T07:45:56;11.52;;;2.97;;
52838;SDS011;39219;53.678;9.856;2023-09-19T07:48:27;7.82;;;3.00;;
52838;SDS011;39219;53.678;9.856;2023-09-19T07:50:53;10.70;;;3.20;;
52838;SDS011;39219;53.678;9.856;2023-09-19T07:53:20;11.63;;;2.85;;
52838;SDS011;39219;53.678;9.856;2023-09-19T07:55:47;11.57;;;2.50;;
52838;SDS011;39219;53.678;9.856;2023-09-19T07:58:14;7.15;;;2.30;;
52838;SDS011;39219;53.678;9.856;2023-09-19T08:00:40;9.07;;;2.78;;
52838;SDS011;39219;53.678;9.856;2023-09-19T08:03:07;10.00;;;2.63;;
52838;SDS011;39219;53.678;9.856;2023-09-19T08:05:35;10.57;;;2.97;;
52838;SDS011;39219;53.678;9.856;2023-09-19T08:08:01;10.05;;;2.80;;
52838;SDS011;39219;53.678;9.856;2023-09-19T08:10:28;6.93;;;2.70;;
52838;SDS011;39219;53.678;9.856;2023-09-19T08:13:00;9.55;;;2.90;;
52838;SDS011;39219;53.678;9.856;2023-09-19T08:15:27;7.72;;;2.70;;
52838;SDS011;39219;53.678;9.856;2023-09-19T08:17:53;7.75;;;2.60;;
52838;SDS011;39219;53.678;9.856;2023-09-19T08:20:20;7.38;;;2.53;;
52838;SDS011;39219;53.678;9.856;2023-09-19T08:22:48;7.82;;;2.95;;
52838;SDS011;39219;53.678;9.856;2023-09-19T08:25:17;8.40;;;2.63;;
52838;SDS011;39219;53.678;9.856;2023-09-19T08:27:44;7.32;;;2.65;;
52838;SDS011;39219;53.678;9.856;2023-09-19T08:30:13;8.35;;;2.80;;
52838;SDS011;39219;53.678;9.856;2023-09-19T08:32:39;13.38;;;3.00;;
52838;SDS011;39219;53.678;9.856;2023-09-19T08:35:07;9.73;;;3.22;;
52838;SDS011;39219;53.678;9.856;2023-09-19T08:37:34;8.63;;;2.70;;
52838;SDS011;39219;53.678;9.856;2023-09-19T08:40:02;6.85;;;2.65;;
52838;SDS011;39219;53.678;9.856;2023-09-19T08:42:28;9.38;;;3.00;;
52838;SDS011;39219;53.678;9.856;2023-09-19T08:44:55;8.00;;;2.80;;
52838;SDS011;39219;53.678;9.856;2023-09-19T08:47:23;9.07;;;2.80;;
52838;SDS011;39219;53.678;9.856;2023-09-19T08:49:53;6.63;;;2.63;;
52838;SDS011;39219;53.678;9.856;2023-09-19T08:52:20;10.40;;;2.88;;
52838;SDS011;39219;53.678;9.856;2023-09-19T08:54:48;7.53;;;2.72;;
52838;SDS011;39219;53.678;9.856;2023-09-19T08:57:19;8.55;;;2.67;;
52838;SDS011;39219;53.678;9.856;2023-09-19T08:59:47;13.38;;;3.00;;
52838;SDS011;39219;53.678;9.856;2023-09-19T09:02:16;7.80;;;2.65;;
52838;SDS011;39219;53.678;9.856;2023-09-19T09:04:44;9.15;;;2.60;;
52838;SDS011;39219;53.678;9.856;2023-09-19T09:07:11;11.73;;;3.10;;
52838;SDS011;39219;53.678;9.856;2023-09-19T09:09:37;8.93;;;2.97;;
52838;SDS011;39219;53.678;9.856;2023-09-19T09:12:07;11.70;;;3.10;;
52838;SDS011;39219;53.678;9.856;2023-09-19T09:14:35;12.15;;;2.60;;
52838;SDS011;39219;53.678;9.856;2023-09-19T09:17:01;10.68;;;2.80;;
52838;SDS011;39219;53.678;9.856;2023-09-19T09:19:28;8.20;;;2.42;;
52838;SDS011;39219;53.678;9.856;2023-09-19T09:22:04;10.30;;;2.60;;
52838;SDS011;39219;53.678;9.856;2023-09-19T09:24:31;9.55;;;2.75;;
52838;SDS011;39219;53.678;9.856;2023-09-19T09:26:59;9.77;;;2.97;;
52838;SDS011;39219;53.678;9.856;2023-09-19T09:29:42;10.32;;;2.90;;
52838;SDS011;39219;53.678;9.856;2023-09-19T09:32:19;9.80;;;2.83;;
52838;SDS011;39219;53.678;9.856;2023-09-19T09:34:45;10.38;;;2.60;;
52838;SDS011;39219;53.678;9.856;2023-09-19T09:37:13;10.23;;;2.72;;
52838;SDS011;39219;53.678;9.856;2023-09-19T09:39:40;9.77;;;2.50;;
52838;SDS011;39219;53.678;9.856;2023-09-19T09:42:19;11.50;;;2.60;;
52838;SDS011;39219;53.678;9.856;2023-09-19T09:45:03;10.27;;;2.47;;
52838;SDS011;39219;53.678;9.856;2023-09-19T09:47:41;9.23;;;2.47;;
52838;SDS011;39219;53.678;9.856;2023-09-19T09:50:17;9.93;;;2.50;;
52838;SDS011;39219;53.678;9.856;2023-09-19T09:52:54;10.85;;;2.50;;
52838;SDS011;39219;53.678;9.856;2023-09-19T09:55:26;9.05;;;2.72;;
52838;SDS011;39219;53.678;9.856;2023-09-19T09:57:58;9.98;;;2.42;;
52838;SDS011;39219;53.678;9.856;2023-09-19T10:00:53;8.35;;;2.38;;
52838;SDS011;39219;53.678;9.856;2023-09-19T10:03:23;9.23;;;2.33;;
52838;SDS011;39219;53.678;9.856;2023-09-19T10:05:56;6.32;;;2.00;;
52838;SDS011;39219;53.678;9.856;2023-09-19T10:08:25;7.72;;;2.20;;
52838;SDS011;39219;53.678;9.856;2023-09-19T10:10:56;6.70;;;2.13;;
52838;SDS011;39219;53.678;9.856;2023-09-19T10:13:30;8.60;;;2.25;;
52838;SDS011;39219;53.678;9.856;2023-09-19T10:15:59;5.75;;;2.20;;
52838;SDS011;39219;53.678;9.856;2023-09-19T10:18:30;9.40;;;2.40;;
52838;SDS011;39219;53.678;9.856;2023-09-19T10:20:58;7.00;;;2.00;;
52838;SDS011;39219;53.678;9.856;2023-09-19T10:23:25;8.98;;;2.38;;
52838;SDS011;39219;53.678;9.856;2023-09-19T10:25:55;7.78;;;2.00;;
52838;SDS011;39219;53.678;9.856;2023-09-19T10:28:22;7.88;;;2.17;;
52838;SDS011;39219;53.678;9.856;2023-09-19T10:30:50;10.93;;;2.30;;
52838;SDS011;39219;53.678;9.856;2023-09-19T10:33:18;7.13;;;2.00;;
52838;SDS011;39219;53.678;9.856;2023-09-19T10:35:46;9.30;;;2.20;;
52838;SDS011;39219;53.678;9.856;2023-09-19T10:38:13;8.25;;;2.58;;
52838;SDS011;39219;53.678;9.856;2023-09-19T10:40:39;7.55;;;2.28;;
52838;SDS011;39219;53.678;9.856;2023-09-19T10:43:11;7.45;;;2.30;;
52838;SDS011;39219;53.678;9.856;2023-09-19T10:45:37;8.20;;;2.30;;
52838;SDS011;39219;53.678;9.856;2023-09-19T10:48:05;6.95;;;2.45;;
52838;SDS011;39219;53.678;9.856;2023-09-19T10:50:35;8.27;;;2.33;;
52838;SDS011;39219;53.678;9.856;2023-09-19T10:53:03;7.95;;;2.45;;
52838;SDS011;39219;53.678;9.856;2023-09-19T10:55:33;9.25;;;2.70;;
52838;SDS011;39219;53.678;9.856;2023-09-19T10:58:01;5.45;;;2.17;;
52838;SDS011;39219;53.678;9.856;2023-09-19T11:00:29;10.35;;;2.60;;
52838;SDS011;39219;53.678;9.856;2023-09-19T11:03:18;7.95;;;2.40;;
52838;SDS011;39219;53.678;9.856;2023-09-19T11:08:31;5.30;;;2.13;;
52838;SDS011;39219;53.678;9.856;2023-09-19T11:16:39;9.27;;;2.60;;
52838;SDS011;39219;53.678;9.856;2023-09-19T11:19:05;8.15;;;2.13;;
52838;SDS011;39219;53.678;9.856;2023-09-19T11:21:39;9.05;;;2.30;;
52838;SDS011;39219;53.678;9.856;2023-09-19T11:24:28;6.82;;;2.33;;
52838;SDS011;39219;53.678;9.856;2023-09-19T11:27:09;7.72;;;2.60;;
52838;SDS011;39219;53.678;9.856;2023-09-19T11:29:35;13.93;;;2.83;;
52838;SDS011;39219;53.678;9.856;2023-09-19T11:32:02;11.65;;;2.60;;
52838;SDS011;39219;53.678;9.856;2023-09-19T11:34:46;9.68;;;2.90;;
52838;SDS011;39219;53.678;9.856;2023-09-19T11:40:07;8.85;;;3.00;;
52838;SDS011;39219;53.678;9.856;2023-09-19T11:42:41;7.68;;;2.50;;
52838;SDS011;39219;53.678;9.856;2023-09-19T11:45:07;9.23;;;2.47;;
52838;SDS011;39219;53.678;9.856;2023-09-19T11:47:33;10.27;;;2.55;;
52838;SDS011;39219;53.678;9.856;2023-09-19T11:50:01;10.00;;;2.53;;
52838;SDS011;39219;53.678;9.856;2023-09-19T11:52:27;10.18;;;2.42;;
52838;SDS011;39219;53.678;9.856;2023-09-19T11:54:59;9.95;;;2.45;;
52838;SDS011;39219;53.678;9.856;2023-09-19T11:57:28;8.70;;;2.80;;
52838;SDS011;39219;53.678;9.856;2023-09-19T11:59:55;11.38;;;2.55;;
52838;SDS011;39219;53.678;9.856;2023-09-19T12:02:27;9.18;;;2.95;;
52838;SDS011;39219;53.678;9.856;2023-09-19T12:04:59;8.60;;;2.78;;
52838;SDS011;39219;53.678;9.856;2023-09-19T12:07:25;7.38;;;2.45;;
52838;SDS011;39219;53.678;9.856;2023-09-19T12:10:02;10.38;;;3.17;;
52838;SDS011;39219;53.678;9.856;2023-09-19T12:12:30;6.28;;;2.22;;
52838;SDS011;39219;53.678;9.856;2023-09-19T12:14:58;7.93;;;2.80;;
52838;SDS011;39219;53.678;9.856;2023-09-19T12:17:24;8.05;;;2.53;;
52838;SDS011;39219;53.678;9.856;2023-09-19T12:20:01;11.35;;;2.88;;
52838;SDS011;39219;53.678;9.856;2023-09-19T12:22:38;9.13;;;3.00;;
52838;SDS011;39219;53.678;9.856;2023-09-19T12:25:05;11.63;;;2.95;;
52838;SDS011;39219;53.678;9.856;2023-09-19T12:27:42;12.88;;;2.90;;
52838;SDS011;39219;53.678;9.856;2023-09-19T12:30:09;7.38;;;2.33;;
52838;SDS011;39219;53.678;9.856;2023-09-19T12:32:39;8.45;;;2.88;;
52838;SDS011;39219;53.678;9.856;2023-09-19T12:35:05;10.35;;;2.80;;
52838;SDS011;39219;53.678;9.856;2023-09-19T12:37:35;9.93;;;2.65;;
52838;SDS011;39219;53.678;9.856;2023-09-19T12:40:05;9.13;;;2.70;;
52838;SDS011;39219;53.678;9.856;2023-09-19T12:42:43;9.27;;;2.55;;
52838;SDS011;39219;53.678;9.856;2023-09-19T12:45:10;8.23;;;2.65;;
52838;SDS011;39219;53.678;9.856;2023-09-19T12:47:39;9.63;;;3.17;;
52838;SDS011;39219;53.678;9.856;2023-09-19T12:50:09;7.80;;;2.88;;
52838;SDS011;39219;53.678;9.856;2023-09-19T12:52:40;8.85;;;2.60;;
52838;SDS011;39219;53.678;9.856;2023-09-19T12:55:07;8.32;;;2.92;;
52838;SDS011;39219;53.678;9.856;2023-09-19T12:57:36;12.35;;;2.80;;
52838;SDS011;39219;53.678;9.856;2023-09-19T13:00:06;11.30;;;3.03;;
52838;SDS011;39219;53.678;9.856;2023-09-19T13:02:36;7.93;;;2.35;;
52838;SDS011;39219;53.678;9.856;2023-09-19T13:05:02;9.73;;;3.08;;
52838;SDS011;39219;53.678;9.856;2023-09-19T13:07:41;6.85;;;2.63;;
52838;SDS011;39219;53.678;9.856;2023-09-19T13:10:11;8.45;;;2.45;;
52838;SDS011;39219;53.678;9.856;2023-09-19T13:12:41;9.65;;;2.63;;
52838;SDS011;39219;53.678;9.856;2023-09-19T13:15:11;9.85;;;2.40;;
52838;SDS011;39219;53.678;9.856;2023-09-19T13:17:42;7.95;;;2.63;;
52838;SDS011;39219;53.678;9.856;2023-09-19T13:20:19;8.82;;;2.90;;
52838;SDS011;39219;53.678;9.856;2023-09-19T13:22:49;6.22;;;2.50;;
52838;SDS011;39219;53.678;9.856;2023-09-19T13:25:20;8.00;;;2.80;;
52838;SDS011;39219;53.678;9.856;2023-09-19T13:27:47;8.93;;;2.67;;
52838;SDS011;39219;53.678;9.856;2023-09-19T13:30:17;6.80;;;2.45;;
52838;SDS011;39219;53.678;9.856;2023-09-19T13:32:44;7.25;;;2.45;;
52838;SDS011;39219;53.678;9.856;2023-09-19T13:35:12;6.97;;;2.05;;
52838;SDS011;39219;53.678;9.856;2023-09-19T13:37:39;9.38;;;2.20;;
52838;SDS011;39219;53.678;9.856;2023-09-19T13:40:06;7.70;;;2.20;;
52838;SDS011;39219;53.678;9.856;2023-09-19T13:42:32;7.00;;;2.42;;
52838;SDS011;39219;53.678;9.856;2023-09-19T13:44:59;7.70;;;2.63;;
52838;SDS011;39219;53.678;9.856;2023-09-19T13:47:27;7.10;;;2.40;;
52838;SDS011;39219;53.678;9.856;2023-09-19T13:49:53;5.00;;;2.10;;
52838;SDS011;39219;53.678;9.856;2023-09-19T13:52:20;7.78;;;2.47;;
52838;SDS011;39219;53.678;9.856;2023-09-19T13:54:46;10.27;;;2.50;;
52838;SDS011;39219;53.678;9.856;2023-09-19T13:57:13;9.30;;;2.75;;
52838;SDS011;39219;53.678;9.856;2023-09-19T13:59:39;7.90;;;2.55;;
52838;SDS011;39219;53.678;9.856;2023-09-19T14:02:05;7.45;;;2.67;;
52838;SDS011;39219;53.678;9.856;2023-09-19T14:04:33;6.10;;;2.35;;
52838;SDS011;39219;53.678;9.856;2023-09-19T14:07:00;9.07;;;2.42;;
52838;SDS011;39219;53.678;9.856;2023-09-19T14:09:27;9.25;;;2.60;;
52838;SDS011;39219;53.678;9.856;2023-09-19T14:11:53;6.05;;;2.22;;
52838;SDS011;39219;53.678;9.856;2023-09-19T14:14:19;10.48;;;2.47;;
52838;SDS011;39219;53.678;9.856;2023-09-19T14:16:46;7.35;;;2.47;;
52838;SDS011;39219;53.678;9.856;2023-09-19T14:19:13;7.65;;;2.33;;
52838;SDS011;39219;53.678;9.856;2023-09-19T14:21:42;7.97;;;2.55;;
52838;SDS011;39219;53.678;9.856;2023-09-19T14:24:08;6.88;;;2.10;;
52838;SDS011;39219;53.678;9.856;2023-09-19T14:26:35;10.63;;;2.50;;
52838;SDS011;39219;53.678;9.856;2023-09-19T14:29:01;7.05;;;2.65;;
52838;SDS011;39219;53.678;9.856;2023-09-19T14:31:27;11.10;;;3.20;;
52838;SDS011;39219;53.678;9.856;2023-09-19T14:33:54;8.10;;;2.42;;
52838;SDS011;39219;53.678;9.856;2023-09-19T14:36:21;7.45;;;2.17;;
52838;SDS011;39219;53.678;9.856;2023-09-19T14:38:51;8.23;;;2.67;;
52838;SDS011;39219;53.678;9.856;2023-09-19T14:41:18;6.13;;;2.47;;
52838;SDS011;39219;53.678;9.856;2023-09-19T14:43:45;5.88;;;2.33;;
52838;SDS011;39219;53.678;9.856;2023-09-19T14:46:11;9.02;;;2.53;;
52838;SDS011;39219;53.678;9.856;2023-09-19T14:48:39;8.23;;;2.20;;
52838;SDS011;39219;53.678;9.856;2023-09-19T14:51:06;12.65;;;2.40;;
52838;SDS011;39219;53.678;9.856;2023-09-19T14:53:34;11.77;;;2.50;;
52838;SDS011;39219;53.678;9.856;2023-09-19T14:56:02;7.82;;;2.72;;
52838;SDS011;39219;53.678;9.856;2023-09-19T14:58:29;9.02;;;2.53;;
52838;SDS011;39219;53.678;9.856;2023-09-19T15:01:01;6.38;;;2.47;;
52838;SDS011;39219;53.678;9.856;2023-09-19T15:03:27;9.45;;;2.45;;
52838;SDS011;39219;53.678;9.856;2023-09-19T15:05:58;9.13;;;2.67;;